sensor_id;sensor_type;location;lat;lon;timestamp;P1;durP1;ratioP1;P2;durP2;ratioP2
26702;SDS011;14316;51.074;3.704;2023-07-20T00:02:02;12.02;;;7.60;;
26702;SDS011;14316;51.074;3.704;2023-07-20T00:04:30;12.65;;;7.85;;
26702;SDS011;14316;51.074;3.704;2023-07-20T00:06:56;13.02;;;7.78;;
26702;SDS011;14316;51.074;3.704;2023-07-20T00:09:22;13.85;;;8.30;;
26702;SDS011;14316;51.074;3.704;2023-07-20T00:11:49;12.52;;;8.48;;
26702;SDS011;14316;51.074;3.704;2023-07-20T00:14:17;13.38;;;8.80;;
26702;SDS011;14316;51.074;3.704;2023-07-20T00:16:43;14.70;;;8.82;;
26702;SDS011;14316;51.074;3.704;2023-07-20T00:19:14;13.20;;;8.90;;
26702;SDS011;14316;51.074;3.704;2023-07-20T00:21:41;16.20;;;8.13;;
26702;SDS011;14316;51.074;3.704;2023-07-20T00:24:07;15.77;;;8.85;;
26702;SDS011;14316;51.074;3.704;2023-07-20T00:26:34;16.23;;;8.98;;
26702;SDS011;14316;51.074;3.704;2023-07-20T00:29:00;16.52;;;9.20;;
26702;SDS011;14316;51.074;3.704;2023-07-20T00:31:26;13.75;;;9.38;;
26702;SDS011;14316;51.074;3.704;2023-07-20T00:33:52;16.92;;;9.32;;
26702;SDS011;14316;51.074;3.704;2023-07-20T00:36:18;14.18;;;9.48;;
26702;SDS011;14316;51.074;3.704;2023-07-20T00:38:44;15.90;;;9.95;;
26702;SDS011;14316;51.074;3.704;2023-07-20T00:41:10;15.70;;;10.05;;
26702;SDS011;14316;51.074;3.704;2023-07-20T00:43:38;17.60;;;9.75;;
26702;SDS011;14316;51.074;3.704;2023-07-20T00:46:05;15.57;;;9.80;;
26702;SDS011;14316;51.074;3.704;2023-07-20T00:48:31;12.63;;;9.38;;
26702;SDS011;14316;51.074;3.704;2023-07-20T00:50:58;14.27;;;10.20;;
26702;SDS011;14316;51.074;3.704;2023-07-20T00:53:25;17.35;;;10.52;;
26702;SDS011;14316;51.074;3.704;2023-07-20T00:55:52;15.95;;;9.48;;
26702;SDS011;14316;51.074;3.704;2023-07-20T00:58:18;13.95;;;10.57;;
26702;SDS011;14316;51.074;3.704;2023-07-20T01:00:44;16.13;;;10.88;;
26702;SDS011;14316;51.074;3.704;2023-07-20T01:03:12;16.40;;;12.18;;
26702;SDS011;14316;51.074;3.704;2023-07-20T01:05:52;16.65;;;12.30;;
26702;SDS011;14316;51.074;3.704;2023-07-20T01:08:32;20.60;;;12.38;;
26702;SDS011;14316;51.074;3.704;2023-07-20T01:11:06;20.73;;;12.73;;
26702;SDS011;14316;51.074;3.704;2023-07-20T01:13:41;15.50;;;11.25;;
26702;SDS011;14316;51.074;3.704;2023-07-20T01:16:09;17.00;;;10.90;;
26702;SDS011;14316;51.074;3.704;2023-07-20T01:18:35;15.98;;;11.48;;
26702;SDS011;14316;51.074;3.704;2023-07-20T01:21:06;17.27;;;11.20;;
26702;SDS011;14316;51.074;3.704;2023-07-20T01:29:29;15.30;;;9.95;;
26702;SDS011;14316;51.074;3.704;2023-07-20T01:31:59;16.55;;;10.52;;
26702;SDS011;14316;51.074;3.704;2023-07-20T01:34:28;15.55;;;11.50;;
26702;SDS011;14316;51.074;3.704;2023-07-20T01:36:56;17.25;;;10.90;;
26702;SDS011;14316;51.074;3.704;2023-07-20T01:39:23;19.70;;;11.82;;
26702;SDS011;14316;51.074;3.704;2023-07-20T01:41:49;16.42;;;11.20;;
26702;SDS011;14316;51.074;3.704;2023-07-20T01:44:15;17.70;;;11.65;;
26702;SDS011;14316;51.074;3.704;2023-07-20T01:46:41;16.90;;;11.57;;
26702;SDS011;14316;51.074;3.704;2023-07-20T01:49:07;17.17;;;11.50;;
26702;SDS011;14316;51.074;3.704;2023-07-20T01:51:33;15.50;;;10.48;;
26702;SDS011;14316;51.074;3.704;2023-07-20T01:53:59;14.75;;;10.88;;
26702;SDS011;14316;51.074;3.704;2023-07-20T01:56:25;15.70;;;12.00;;
26702;SDS011;14316;51.074;3.704;2023-07-20T01:58:51;13.77;;;11.45;;
26702;SDS011;14316;51.074;3.704;2023-07-20T02:01:18;14.43;;;11.15;;
26702;SDS011;14316;51.074;3.704;2023-07-20T02:03:44;15.95;;;12.40;;
26702;SDS011;14316;51.074;3.704;2023-07-20T02:06:10;17.48;;;14.30;;
26702;SDS011;14316;51.074;3.704;2023-07-20T02:08:36;17.17;;;13.75;;
26702;SDS011;14316;51.074;3.704;2023-07-20T02:11:02;19.52;;;12.38;;
26702;SDS011;14316;51.074;3.704;2023-07-20T02:13:30;16.15;;;12.25;;
26702;SDS011;14316;51.074;3.704;2023-07-20T02:15:55;14.48;;;11.82;;
26702;SDS011;14316;51.074;3.704;2023-07-20T02:18:21;16.55;;;11.73;;
26702;SDS011;14316;51.074;3.704;2023-07-20T02:20:47;12.65;;;10.80;;
26702;SDS011;14316;51.074;3.704;2023-07-20T02:23:13;18.58;;;11.38;;
26702;SDS011;14316;51.074;3.704;2023-07-20T02:25:40;15.57;;;11.27;;
26702;SDS011;14316;51.074;3.704;2023-07-20T02:28:07;17.25;;;11.07;;
26702;SDS011;14316;51.074;3.704;2023-07-20T02:30:34;15.00;;;12.00;;
26702;SDS011;14316;51.074;3.704;2023-07-20T02:33:04;16.23;;;11.45;;
26702;SDS011;14316;51.074;3.704;2023-07-20T02:35:31;15.20;;;12.52;;
26702;SDS011;14316;51.074;3.704;2023-07-20T02:37:58;16.38;;;13.18;;
26702;SDS011;14316;51.074;3.704;2023-07-20T02:40:24;19.27;;;13.57;;
26702;SDS011;14316;51.074;3.704;2023-07-20T02:42:50;18.63;;;12.75;;
26702;SDS011;14316;51.074;3.704;2023-07-20T02:45:16;17.17;;;12.40;;
26702;SDS011;14316;51.074;3.704;2023-07-20T02:47:42;17.77;;;12.48;;
26702;SDS011;14316;51.074;3.704;2023-07-20T02:50:08;17.05;;;12.65;;
26702;SDS011;14316;51.074;3.704;2023-07-20T02:52:34;18.92;;;12.70;;
26702;SDS011;14316;51.074;3.704;2023-07-20T02:55:00;15.50;;;12.85;;
26702;SDS011;14316;51.074;3.704;2023-07-20T02:57:26;14.75;;;12.75;;
26702;SDS011;14316;51.074;3.704;2023-07-20T02:59:52;18.52;;;13.27;;
26702;SDS011;14316;51.074;3.704;2023-07-20T03:02:19;19.55;;;14.23;;
26702;SDS011;14316;51.074;3.704;2023-07-20T03:04:47;14.98;;;12.95;;
26702;SDS011;14316;51.074;3.704;2023-07-20T03:07:14;17.17;;;13.13;;
26702;SDS011;14316;51.074;3.704;2023-07-20T03:09:40;15.68;;;13.30;;
26702;SDS011;14316;51.074;3.704;2023-07-20T03:12:06;15.57;;;12.88;;
26702;SDS011;14316;51.074;3.704;2023-07-20T03:14:32;14.88;;;12.65;;
26702;SDS011;14316;51.074;3.704;2023-07-20T03:16:58;19.70;;;13.63;;
26702;SDS011;14316;51.074;3.704;2023-07-20T03:19:24;13.32;;;11.90;;
26702;SDS011;14316;51.074;3.704;2023-07-20T03:21:50;16.00;;;12.32;;
26702;SDS011;14316;51.074;3.704;2023-07-20T03:24:16;18.10;;;12.52;;
26702;SDS011;14316;51.074;3.704;2023-07-20T03:26:42;15.82;;;12.20;;
26702;SDS011;14316;51.074;3.704;2023-07-20T03:29:08;16.35;;;12.82;;
26702;SDS011;14316;51.074;3.704;2023-07-20T03:31:34;15.65;;;12.05;;
26702;SDS011;14316;51.074;3.704;2023-07-20T03:34:00;13.85;;;12.32;;
26702;SDS011;14316;51.074;3.704;2023-07-20T03:36:26;13.82;;;12.05;;
26702;SDS011;14316;51.074;3.704;2023-07-20T03:38:53;16.55;;;12.82;;
26702;SDS011;14316;51.074;3.704;2023-07-20T03:41:18;14.15;;;12.68;;
26702;SDS011;14316;51.074;3.704;2023-07-20T03:43:46;15.82;;;13.02;;
26702;SDS011;14316;51.074;3.704;2023-07-20T03:46:12;14.02;;;12.27;;
26702;SDS011;14316;51.074;3.704;2023-07-20T03:48:38;18.00;;;13.10;;
26702;SDS011;14316;51.074;3.704;2023-07-20T03:51:04;16.60;;;13.32;;
26702;SDS011;14316;51.074;3.704;2023-07-20T03:53:30;14.90;;;12.65;;
26702;SDS011;14316;51.074;3.704;2023-07-20T03:55:57;15.52;;;12.73;;
26702;SDS011;14316;51.074;3.704;2023-07-20T03:58:23;13.55;;;12.00;;
26702;SDS011;14316;51.074;3.704;2023-07-20T04:00:50;15.57;;;12.45;;
26702;SDS011;14316;51.074;3.704;2023-07-20T04:03:17;14.05;;;12.38;;
26702;SDS011;14316;51.074;3.704;2023-07-20T04:05:47;14.37;;;12.10;;
26702;SDS011;14316;51.074;3.704;2023-07-20T04:08:13;14.88;;;12.13;;
26702;SDS011;14316;51.074;3.704;2023-07-20T04:10:42;15.05;;;11.73;;
26702;SDS011;14316;51.074;3.704;2023-07-20T04:13:09;14.80;;;12.35;;
26702;SDS011;14316;51.074;3.704;2023-07-20T04:15:36;12.65;;;11.35;;
26702;SDS011;14316;51.074;3.704;2023-07-20T04:18:02;15.43;;;12.13;;
26702;SDS011;14316;51.074;3.704;2023-07-20T04:20:28;13.75;;;12.10;;
26702;SDS011;14316;51.074;3.704;2023-07-20T04:22:54;14.40;;;12.88;;
26702;SDS011;14316;51.074;3.704;2023-07-20T04:25:19;13.90;;;12.48;;
26702;SDS011;14316;51.074;3.704;2023-07-20T04:27:46;14.80;;;12.60;;
26702;SDS011;14316;51.074;3.704;2023-07-20T04:30:12;14.38;;;11.95;;
26702;SDS011;14316;51.074;3.704;2023-07-20T04:32:38;13.35;;;11.93;;
26702;SDS011;14316;51.074;3.704;2023-07-20T04:35:10;14.52;;;13.13;;
26702;SDS011;14316;51.074;3.704;2023-07-20T04:37:42;13.43;;;12.07;;
26702;SDS011;14316;51.074;3.704;2023-07-20T04:40:11;15.25;;;12.38;;
26702;SDS011;14316;51.074;3.704;2023-07-20T04:42:38;14.77;;;12.25;;
26702;SDS011;14316;51.074;3.704;2023-07-20T04:45:04;13.52;;;11.98;;
26702;SDS011;14316;51.074;3.704;2023-07-20T04:47:30;13.05;;;11.65;;
26702;SDS011;14316;51.074;3.704;2023-07-20T04:49:56;13.50;;;12.20;;
26702;SDS011;14316;51.074;3.704;2023-07-20T04:52:23;12.25;;;11.02;;
26702;SDS011;14316;51.074;3.704;2023-07-20T04:54:49;14.10;;;12.38;;
26702;SDS011;14316;51.074;3.704;2023-07-20T04:57:15;13.43;;;11.27;;
26702;SDS011;14316;51.074;3.704;2023-07-20T04:59:41;13.30;;;11.82;;
26702;SDS011;14316;51.074;3.704;2023-07-20T05:02:06;12.68;;;11.48;;
26702;SDS011;14316;51.074;3.704;2023-07-20T05:04:32;12.13;;;10.88;;
26702;SDS011;14316;51.074;3.704;2023-07-20T05:06:59;12.30;;;11.00;;
26702;SDS011;14316;51.074;3.704;2023-07-20T05:09:24;13.63;;;11.15;;
26702;SDS011;14316;51.074;3.704;2023-07-20T05:11:50;13.02;;;11.77;;
26702;SDS011;14316;51.074;3.704;2023-07-20T05:14:16;12.75;;;10.32;;
26702;SDS011;14316;51.074;3.704;2023-07-20T05:16:43;11.63;;;10.43;;
26702;SDS011;14316;51.074;3.704;2023-07-20T05:19:09;12.43;;;10.73;;
26702;SDS011;14316;51.074;3.704;2023-07-20T05:21:34;11.88;;;10.73;;
26702;SDS011;14316;51.074;3.704;2023-07-20T05:24:00;13.15;;;11.10;;
26702;SDS011;14316;51.074;3.704;2023-07-20T05:26:26;12.15;;;10.60;;
26702;SDS011;14316;51.074;3.704;2023-07-20T05:28:53;11.93;;;10.82;;
26702;SDS011;14316;51.074;3.704;2023-07-20T05:31:19;13.32;;;11.05;;
26702;SDS011;14316;51.074;3.704;2023-07-20T05:33:45;11.48;;;10.20;;
26702;SDS011;14316;51.074;3.704;2023-07-20T05:36:11;12.15;;;10.88;;
26702;SDS011;14316;51.074;3.704;2023-07-20T05:38:37;11.00;;;9.90;;
26702;SDS011;14316;51.074;3.704;2023-07-20T05:41:03;11.38;;;10.20;;
26702;SDS011;14316;51.074;3.704;2023-07-20T05:43:29;10.40;;;9.40;;
26702;SDS011;14316;51.074;3.704;2023-07-20T05:45:56;12.27;;;10.00;;
26702;SDS011;14316;51.074;3.704;2023-07-20T05:48:22;11.07;;;8.35;;
26702;SDS011;14316;51.074;3.704;2023-07-20T05:50:49;10.45;;;8.05;;
26702;SDS011;14316;51.074;3.704;2023-07-20T05:53:15;7.28;;;6.68;;
26702;SDS011;14316;51.074;3.704;2023-07-20T05:55:41;9.10;;;8.20;;
26702;SDS011;14316;51.074;3.704;2023-07-20T05:58:06;9.85;;;7.63;;
26702;SDS011;14316;51.074;3.704;2023-07-20T06:00:32;10.77;;;8.02;;
26702;SDS011;14316;51.074;3.704;2023-07-20T06:02:58;8.68;;;6.90;;
26702;SDS011;14316;51.074;3.704;2023-07-20T06:05:24;10.60;;;7.30;;
26702;SDS011;14316;51.074;3.704;2023-07-20T06:07:50;7.20;;;6.45;;
26702;SDS011;14316;51.074;3.704;2023-07-20T06:10:16;8.30;;;7.50;;
26702;SDS011;14316;51.074;3.704;2023-07-20T06:12:42;7.93;;;6.38;;
26702;SDS011;14316;51.074;3.704;2023-07-20T06:15:31;8.68;;;6.85;;
26702;SDS011;14316;51.074;3.704;2023-07-20T06:18:00;8.07;;;6.47;;
26702;SDS011;14316;51.074;3.704;2023-07-20T06:20:26;5.60;;;5.10;;
26702;SDS011;14316;51.074;3.704;2023-07-20T06:22:52;4.97;;;3.75;;
26702;SDS011;14316;51.074;3.704;2023-07-20T06:25:18;3.88;;;3.47;;
26702;SDS011;14316;51.074;3.704;2023-07-20T06:27:46;3.72;;;2.90;;
26702;SDS011;14316;51.074;3.704;2023-07-20T06:30:15;3.10;;;2.80;;
26702;SDS011;14316;51.074;3.704;2023-07-20T06:32:41;2.80;;;2.10;;
26702;SDS011;14316;51.074;3.704;2023-07-20T06:35:07;3.80;;;2.45;;
26702;SDS011;14316;51.074;3.704;2023-07-20T06:37:34;3.55;;;2.20;;
26702;SDS011;14316;51.074;3.704;2023-07-20T06:40:01;2.47;;;2.10;;
26702;SDS011;14316;51.074;3.704;2023-07-20T06:42:29;2.38;;;1.90;;
26702;SDS011;14316;51.074;3.704;2023-07-20T06:44:56;2.47;;;2.25;;
26702;SDS011;14316;51.074;3.704;2023-07-20T06:47:22;4.07;;;2.58;;
26702;SDS011;14316;51.074;3.704;2023-07-20T06:49:48;3.92;;;2.47;;
26702;SDS011;14316;51.074;3.704;2023-07-20T06:52:14;2.83;;;2.10;;
26702;SDS011;14316;51.074;3.704;2023-07-20T06:54:41;2.72;;;2.50;;
26702;SDS011;14316;51.074;3.704;2023-07-20T06:57:07;3.58;;;2.35;;
26702;SDS011;14316;51.074;3.704;2023-07-20T06:59:33;2.85;;;2.17;;
26702;SDS011;14316;51.074;3.704;2023-07-20T07:01:58;2.60;;;2.40;;
26702;SDS011;14316;51.074;3.704;2023-07-20T07:04:24;2.55;;;2.35;;
26702;SDS011;14316;51.074;3.704;2023-07-20T07:06:51;2.75;;;2.40;;
26702;SDS011;14316;51.074;3.704;2023-07-20T07:09:17;3.90;;;2.45;;
26702;SDS011;14316;51.074;3.704;2023-07-20T07:11:43;2.42;;;2.10;;
26702;SDS011;14316;51.074;3.704;2023-07-20T07:14:09;2.47;;;2.20;;
26702;SDS011;14316;51.074;3.704;2023-07-20T07:16:37;2.03;;;1.83;;
26702;SDS011;14316;51.074;3.704;2023-07-20T07:19:04;2.20;;;2.10;;
26702;SDS011;14316;51.074;3.704;2023-07-20T07:21:30;2.97;;;2.30;;
26702;SDS011;14316;51.074;3.704;2023-07-20T07:23:57;2.20;;;2.05;;
26702;SDS011;14316;51.074;3.704;2023-07-20T07:26:24;2.20;;;2.10;;
26702;SDS011;14316;51.074;3.704;2023-07-20T07:28:50;3.58;;;2.72;;
26702;SDS011;14316;51.074;3.704;2023-07-20T07:31:16;2.60;;;1.70;;
26702;SDS011;14316;51.074;3.704;2023-07-20T07:33:42;1.95;;;1.80;;
26702;SDS011;14316;51.074;3.704;2023-07-20T07:36:08;1.67;;;1.40;;
26702;SDS011;14316;51.074;3.704;2023-07-20T07:38:34;1.75;;;1.40;;
26702;SDS011;14316;51.074;3.704;2023-07-20T07:41:00;2.80;;;1.40;;
26702;SDS011;14316;51.074;3.704;2023-07-20T07:43:26;1.20;;;1.10;;
26702;SDS011;14316;51.074;3.704;2023-07-20T07:45:53;1.90;;;1.23;;
26702;SDS011;14316;51.074;3.704;2023-07-20T07:48:20;2.35;;;1.00;;
26702;SDS011;14316;51.074;3.704;2023-07-20T07:50:47;1.42;;;1.00;;
26702;SDS011;14316;51.074;3.704;2023-07-20T07:53:13;1.65;;;1.33;;
26702;SDS011;14316;51.074;3.704;2023-07-20T07:55:39;3.50;;;1.08;;
26702;SDS011;14316;51.074;3.704;2023-07-20T07:58:06;1.40;;;1.30;;
26702;SDS011;14316;51.074;3.704;2023-07-20T08:00:32;1.60;;;1.50;;
26702;SDS011;14316;51.074;3.704;2023-07-20T08:02:58;1.00;;;0.90;;
26702;SDS011;14316;51.074;3.704;2023-07-20T08:05:24;1.30;;;1.20;;
26702;SDS011;14316;51.074;3.704;2023-07-20T08:07:51;1.92;;;0.85;;
26702;SDS011;14316;51.074;3.704;2023-07-20T08:10:18;1.13;;;0.80;;
26702;SDS011;14316;51.074;3.704;2023-07-20T08:12:43;1.52;;;0.80;;
26702;SDS011;14316;51.074;3.704;2023-07-20T08:15:10;1.80;;;0.82;;
26702;SDS011;14316;51.074;3.704;2023-07-20T08:17:37;1.30;;;1.20;;
26702;SDS011;14316;51.074;3.704;2023-07-20T08:20:04;2.42;;;0.93;;
26702;SDS011;14316;51.074;3.704;2023-07-20T08:22:31;1.63;;;0.80;;
26702;SDS011;14316;51.074;3.704;2023-07-20T08:24:57;1.40;;;1.10;;
26702;SDS011;14316;51.074;3.704;2023-07-20T08:27:23;1.20;;;1.10;;
26702;SDS011;14316;51.074;3.704;2023-07-20T08:29:50;1.33;;;1.15;;
26702;SDS011;14316;51.074;3.704;2023-07-20T08:32:16;2.38;;;1.30;;
26702;SDS011;14316;51.074;3.704;2023-07-20T08:34:42;1.60;;;1.50;;
26702;SDS011;14316;51.074;3.704;2023-07-20T08:37:08;1.85;;;1.50;;
26702;SDS011;14316;51.074;3.704;2023-07-20T08:39:35;1.83;;;1.70;;
26702;SDS011;14316;51.074;3.704;2023-07-20T08:42:01;1.30;;;1.20;;
26702;SDS011;14316;51.074;3.704;2023-07-20T08:44:30;2.05;;;1.40;;
26702;SDS011;14316;51.074;3.704;2023-07-20T08:46:58;1.52;;;1.00;;
26702;SDS011;14316;51.074;3.704;2023-07-20T08:49:27;1.15;;;0.80;;
26702;SDS011;14316;51.074;3.704;2023-07-20T08:51:54;1.02;;;0.93;;
26702;SDS011;14316;51.074;3.704;2023-07-20T08:54:20;2.33;;;1.08;;
26702;SDS011;14316;51.074;3.704;2023-07-20T08:56:46;1.63;;;1.10;;
26702;SDS011;14316;51.074;3.704;2023-07-20T08:59:14;1.75;;;0.90;;
26702;SDS011;14316;51.074;3.704;2023-07-20T09:01:43;0.80;;;0.70;;
26702;SDS011;14316;51.074;3.704;2023-07-20T09:04:10;0.70;;;0.70;;
26702;SDS011;14316;51.074;3.704;2023-07-20T09:06:37;1.33;;;0.93;;
26702;SDS011;14316;51.074;3.704;2023-07-20T09:09:03;1.17;;;0.90;;
26702;SDS011;14316;51.074;3.704;2023-07-20T09:11:30;3.35;;;1.20;;
26702;SDS011;14316;51.074;3.704;2023-07-20T09:14:08;1.70;;;1.30;;
26702;SDS011;14316;51.074;3.704;2023-07-20T09:19:30;2.45;;;1.38;;
26702;SDS011;14316;51.074;3.704;2023-07-20T09:21:57;1.92;;;1.17;;
26702;SDS011;14316;51.074;3.704;2023-07-20T09:24:23;1.67;;;1.30;;
26702;SDS011;14316;51.074;3.704;2023-07-20T09:26:49;1.92;;;1.55;;
26702;SDS011;14316;51.074;3.704;2023-07-20T09:29:19;1.48;;;1.30;;
26702;SDS011;14316;51.074;3.704;2023-07-20T09:32:01;1.55;;;1.45;;
26702;SDS011;14316;51.074;3.704;2023-07-20T09:34:32;1.20;;;1.05;;
26702;SDS011;14316;51.074;3.704;2023-07-20T09:37:00;1.00;;;1.00;;
26702;SDS011;14316;51.074;3.704;2023-07-20T09:39:27;2.45;;;1.05;;
26702;SDS011;14316;51.074;3.704;2023-07-20T09:41:54;2.47;;;1.27;;
26702;SDS011;14316;51.074;3.704;2023-07-20T09:44:20;1.80;;;1.00;;
26702;SDS011;14316;51.074;3.704;2023-07-20T09:46:47;1.90;;;1.15;;
26702;SDS011;14316;51.074;3.704;2023-07-20T09:49:14;1.27;;;1.10;;
26702;SDS011;14316;51.074;3.704;2023-07-20T09:51:42;1.23;;;1.20;;
26702;SDS011;14316;51.074;3.704;2023-07-20T09:54:09;0.82;;;0.82;;
26702;SDS011;14316;51.074;3.704;2023-07-20T09:56:37;2.05;;;1.25;;
26702;SDS011;14316;51.074;3.704;2023-07-20T09:59:04;2.75;;;1.10;;
26702;SDS011;14316;51.074;3.704;2023-07-20T10:01:30;1.30;;;1.00;;
26702;SDS011;14316;51.074;3.704;2023-07-20T10:04:01;1.27;;;1.17;;
26702;SDS011;14316;51.074;3.704;2023-07-20T10:06:29;1.40;;;1.30;;
26702;SDS011;14316;51.074;3.704;2023-07-20T10:09:00;1.30;;;1.20;;
26702;SDS011;14316;51.074;3.704;2023-07-20T10:11:31;1.17;;;0.98;;
26702;SDS011;14316;51.074;3.704;2023-07-20T10:14:03;1.77;;;1.30;;
26702;SDS011;14316;51.074;3.704;2023-07-20T10:16:33;1.08;;;0.95;;
26702;SDS011;14316;51.074;3.704;2023-07-20T10:19:03;2.00;;;1.38;;
26702;SDS011;14316;51.074;3.704;2023-07-20T10:21:37;1.92;;;1.20;;
26702;SDS011;14316;51.074;3.704;2023-07-20T10:24:07;1.92;;;1.30;;
26702;SDS011;14316;51.074;3.704;2023-07-20T10:26:34;1.38;;;1.27;;
26702;SDS011;14316;51.074;3.704;2023-07-20T10:29:01;3.15;;;1.45;;
26702;SDS011;14316;51.074;3.704;2023-07-20T10:31:28;1.30;;;1.20;;
26702;SDS011;14316;51.074;3.704;2023-07-20T10:33:56;1.38;;;1.20;;
26702;SDS011;14316;51.074;3.704;2023-07-20T10:36:25;1.30;;;1.08;;
26702;SDS011;14316;51.074;3.704;2023-07-20T10:38:53;1.40;;;1.00;;
26702;SDS011;14316;51.074;3.704;2023-07-20T10:44:07;1.63;;;1.35;;
26702;SDS011;14316;51.074;3.704;2023-07-20T10:49:04;1.20;;;1.10;;
26702;SDS011;14316;51.074;3.704;2023-07-20T10:51:44;2.10;;;1.90;;
26702;SDS011;14316;51.074;3.704;2023-07-20T10:56:44;1.67;;;1.58;;
26702;SDS011;14316;51.074;3.704;2023-07-20T11:01:46;2.83;;;2.20;;
26702;SDS011;14316;51.074;3.704;2023-07-20T11:04:14;1.92;;;1.60;;
26702;SDS011;14316;51.074;3.704;2023-07-20T11:06:44;2.88;;;1.50;;
26702;SDS011;14316;51.074;3.704;2023-07-20T11:09:12;2.78;;;1.40;;
26702;SDS011;14316;51.074;3.704;2023-07-20T11:11:40;3.30;;;2.83;;
26702;SDS011;14316;51.074;3.704;2023-07-20T11:14:20;2.97;;;1.77;;
26702;SDS011;14316;51.074;3.704;2023-07-20T11:16:48;3.10;;;1.77;;
26702;SDS011;14316;51.074;3.704;2023-07-20T11:21:52;2.72;;;1.52;;
26702;SDS011;14316;51.074;3.704;2023-07-20T11:24:19;2.20;;;1.60;;
26702;SDS011;14316;51.074;3.704;2023-07-20T11:26:46;1.45;;;1.30;;
26702;SDS011;14316;51.074;3.704;2023-07-20T11:29:17;1.80;;;1.60;;
26702;SDS011;14316;51.074;3.704;2023-07-20T11:31:45;2.65;;;1.70;;
26702;SDS011;14316;51.074;3.704;2023-07-20T11:34:16;3.65;;;1.80;;
26702;SDS011;14316;51.074;3.704;2023-07-20T11:36:44;2.03;;;1.63;;
26702;SDS011;14316;51.074;3.704;2023-07-20T11:39:15;2.25;;;1.42;;
26702;SDS011;14316;51.074;3.704;2023-07-20T11:42:02;1.73;;;1.20;;
26702;SDS011;14316;51.074;3.704;2023-07-20T11:44:30;1.60;;;1.48;;
26702;SDS011;14316;51.074;3.704;2023-07-20T11:47:12;2.80;;;1.67;;
26702;SDS011;14316;51.074;3.704;2023-07-20T11:49:42;1.77;;;1.67;;
26702;SDS011;14316;51.074;3.704;2023-07-20T11:52:12;2.95;;;1.58;;
26702;SDS011;14316;51.074;3.704;2023-07-20T11:57:07;1.95;;;1.75;;
26702;SDS011;14316;51.074;3.704;2023-07-20T11:59:52;2.22;;;1.90;;
26702;SDS011;14316;51.074;3.704;2023-07-20T12:02:22;2.08;;;1.83;;
26702;SDS011;14316;51.074;3.704;2023-07-20T12:04:51;1.95;;;1.60;;
26702;SDS011;14316;51.074;3.704;2023-07-20T12:07:20;2.00;;;1.80;;
26702;SDS011;14316;51.074;3.704;2023-07-20T12:10:03;1.70;;;1.50;;
26702;SDS011;14316;51.074;3.704;2023-07-20T12:12:40;2.05;;;1.70;;
26702;SDS011;14316;51.074;3.704;2023-07-20T12:17:44;1.80;;;1.65;;
26702;SDS011;14316;51.074;3.704;2023-07-20T12:20:11;2.10;;;1.90;;
26702;SDS011;14316;51.074;3.704;2023-07-20T12:22:43;3.25;;;2.17;;
26702;SDS011;14316;51.074;3.704;2023-07-20T12:25:09;2.05;;;1.85;;
26702;SDS011;14316;51.074;3.704;2023-07-20T12:27:36;1.88;;;1.67;;
26702;SDS011;14316;51.074;3.704;2023-07-20T12:30:03;2.58;;;1.92;;
26702;SDS011;14316;51.074;3.704;2023-07-20T12:32:31;2.65;;;2.35;;
26702;SDS011;14316;51.074;3.704;2023-07-20T12:34:58;2.97;;;2.47;;
26702;SDS011;14316;51.074;3.704;2023-07-20T12:37:25;2.30;;;2.10;;
26702;SDS011;14316;51.074;3.704;2023-07-20T12:39:52;2.22;;;1.90;;
26702;SDS011;14316;51.074;3.704;2023-07-20T12:42:18;2.25;;;2.00;;
26702;SDS011;14316;51.074;3.704;2023-07-20T12:44:43;2.40;;;2.20;;
26702;SDS011;14316;51.074;3.704;2023-07-20T12:47:10;2.40;;;2.20;;
26702;SDS011;14316;51.074;3.704;2023-07-20T12:49:36;2.33;;;2.13;;
26702;SDS011;14316;51.074;3.704;2023-07-20T12:52:03;2.25;;;2.00;;
26702;SDS011;14316;51.074;3.704;2023-07-20T12:54:29;3.65;;;2.10;;
26702;SDS011;14316;51.074;3.704;2023-07-20T12:56:55;2.42;;;1.65;;
26702;SDS011;14316;51.074;3.704;2023-07-20T12:59:21;1.83;;;1.40;;
26702;SDS011;14316;51.074;3.704;2023-07-20T13:01:47;2.85;;;1.70;;
26702;SDS011;14316;51.074;3.704;2023-07-20T13:04:13;1.27;;;1.17;;
26702;SDS011;14316;51.074;3.704;2023-07-20T13:06:39;1.25;;;1.00;;
26702;SDS011;14316;51.074;3.704;2023-07-20T13:09:06;1.33;;;1.00;;
26702;SDS011;14316;51.074;3.704;2023-07-20T13:11:33;0.80;;;0.80;;
26702;SDS011;14316;51.074;3.704;2023-07-20T13:13:59;1.75;;;1.02;;
26702;SDS011;14316;51.074;3.704;2023-07-20T13:16:25;1.67;;;1.20;;
26702;SDS011;14316;51.074;3.704;2023-07-20T13:18:51;1.05;;;1.02;;
26702;SDS011;14316;51.074;3.704;2023-07-20T13:21:18;1.60;;;1.10;;
26702;SDS011;14316;51.074;3.704;2023-07-20T13:23:47;1.05;;;0.95;;
26702;SDS011;14316;51.074;3.704;2023-07-20T13:26:14;2.03;;;1.42;;
26702;SDS011;14316;51.074;3.704;2023-07-20T13:28:41;1.83;;;1.63;;
26702;SDS011;14316;51.074;3.704;2023-07-20T13:31:07;1.85;;;1.30;;
26702;SDS011;14316;51.074;3.704;2023-07-20T13:33:36;1.83;;;1.42;;
26702;SDS011;14316;51.074;3.704;2023-07-20T13:36:03;1.90;;;1.70;;
26702;SDS011;14316;51.074;3.704;2023-07-20T13:38:31;1.70;;;1.60;;
26702;SDS011;14316;51.074;3.704;2023-07-20T13:40:57;2.17;;;1.50;;
26702;SDS011;14316;51.074;3.704;2023-07-20T13:43:23;2.25;;;1.50;;
26702;SDS011;14316;51.074;3.704;2023-07-20T13:45:49;3.08;;;1.38;;
26702;SDS011;14316;51.074;3.704;2023-07-20T13:48:15;2.20;;;1.55;;
26702;SDS011;14316;51.074;3.704;2023-07-20T13:50:44;2.33;;;1.30;;
26702;SDS011;14316;51.074;3.704;2023-07-20T13:53:11;1.65;;;1.52;;
26702;SDS011;14316;51.074;3.704;2023-07-20T13:55:38;3.20;;;2.35;;
26702;SDS011;14316;51.074;3.704;2023-07-20T13:58:04;2.80;;;2.58;;
26702;SDS011;14316;51.074;3.704;2023-07-20T14:00:30;2.97;;;2.70;;
26702;SDS011;14316;51.074;3.704;2023-07-20T14:02:58;5.93;;;3.15;;
26702;SDS011;14316;51.074;3.704;2023-07-20T14:05:25;3.00;;;2.80;;
26702;SDS011;14316;51.074;3.704;2023-07-20T14:07:50;3.00;;;2.67;;
26702;SDS011;14316;51.074;3.704;2023-07-20T14:10:17;4.95;;;3.22;;
26702;SDS011;14316;51.074;3.704;2023-07-20T14:12:43;5.30;;;3.10;;
26702;SDS011;14316;51.074;3.704;2023-07-20T14:15:10;4.63;;;4.22;;
26702;SDS011;14316;51.074;3.704;2023-07-20T14:17:37;3.97;;;3.67;;
26702;SDS011;14316;51.074;3.704;2023-07-20T14:20:03;5.07;;;3.38;;
26702;SDS011;14316;51.074;3.704;2023-07-20T14:22:33;4.47;;;3.83;;
26702;SDS011;14316;51.074;3.704;2023-07-20T14:24:59;4.82;;;4.40;;
26702;SDS011;14316;51.074;3.704;2023-07-20T14:27:25;4.20;;;3.80;;
26702;SDS011;14316;51.074;3.704;2023-07-20T14:29:51;5.20;;;4.72;;
26702;SDS011;14316;51.074;3.704;2023-07-20T14:32:18;4.10;;;3.80;;
26702;SDS011;14316;51.074;3.704;2023-07-20T14:34:44;6.10;;;4.65;;
26702;SDS011;14316;51.074;3.704;2023-07-20T14:37:10;4.72;;;4.32;;
26702;SDS011;14316;51.074;3.704;2023-07-20T14:39:37;5.43;;;4.93;;
26702;SDS011;14316;51.074;3.704;2023-07-20T14:42:04;5.35;;;4.80;;
26702;SDS011;14316;51.074;3.704;2023-07-20T14:44:30;5.18;;;4.72;;
26702;SDS011;14316;51.074;3.704;2023-07-20T14:46:58;5.13;;;4.63;;
26702;SDS011;14316;51.074;3.704;2023-07-20T14:49:25;5.38;;;4.50;;
26702;SDS011;14316;51.074;3.704;2023-07-20T14:51:52;5.68;;;4.43;;
26702;SDS011;14316;51.074;3.704;2023-07-20T14:54:18;5.40;;;4.90;;
26702;SDS011;14316;51.074;3.704;2023-07-20T14:56:48;5.85;;;5.25;;
26702;SDS011;14316;51.074;3.704;2023-07-20T14:59:18;5.20;;;4.75;;
26702;SDS011;14316;51.074;3.704;2023-07-20T15:01:45;4.95;;;4.53;;
26702;SDS011;14316;51.074;3.704;2023-07-20T15:04:12;5.65;;;5.15;;
26702;SDS011;14316;51.074;3.704;2023-07-20T15:06:39;6.15;;;4.72;;